createdAt,value
2022-08-11T00:02:05.046Z,93.70
2022-08-11T00:07:09.551Z,93.60
2022-08-11T00:12:18.172Z,94.10
2022-08-11T00:17:31.407Z,94.80
2022-08-11T00:22:35.244Z,93.70
2022-08-11T00:27:40.168Z,94.30
2022-08-11T00:32:45.250Z,94.10
2022-08-11T00:37:50.720Z,94.80
2022-08-11T00:43:23.893Z,95.40
2022-08-11T00:48:34.858Z,96.10
2022-08-11T00:54:16.135Z,96.00
2022-08-11T00:59:37.226Z,96.50
2022-08-11T01:04:56.137Z,96.90
2022-08-11T01:10:32.220Z,96.80
2022-08-11T01:16:16.340Z,97.60
2022-08-11T01:21:30.930Z,97.50
2022-08-11T01:26:51.863Z,97.60
2022-08-11T01:32:11.505Z,97.50
2022-08-11T01:37:32.604Z,98.30
2022-08-11T01:43:31.536Z,99.30
2022-08-11T01:48:41.236Z,99.90
2022-08-11T01:53:53.658Z,99.90
2022-08-11T01:59:29.630Z,99.90
2022-08-11T02:04:39.266Z,99.90
2022-08-11T02:10:38.371Z,99.90
2022-08-11T02:15:56.841Z,99.90
2022-08-11T02:21:25.847Z,99.90
2022-08-11T02:27:02.109Z,99.90
2022-08-11T02:32:33.737Z,99.90
2022-08-11T02:37:45.344Z,99.90
2022-08-11T02:43:10.298Z,99.90
2022-08-11T02:49:03.494Z,99.90
2022-08-11T02:54:43.425Z,99.90
2022-08-11T03:00:00.567Z,99.90
2022-08-11T03:05:12.099Z,99.90
2022-08-11T03:10:36.075Z,99.90
2022-08-11T03:16:01.860Z,99.90
2022-08-11T03:21:24.750Z,99.90
2022-08-11T03:27:12.196Z,99.90
2022-08-11T03:32:27.340Z,99.90
2022-08-11T03:37:56.639Z,99.90
2022-08-11T03:43:07.786Z,99.90
2022-08-11T03:48:41.756Z,99.90
2022-08-11T03:54:16.629Z,99.90
2022-08-11T04:00:02.473Z,99.90
2022-08-11T04:05:33.496Z,99.90
2022-08-11T04:11:20.686Z,99.90
2022-08-11T04:16:31.718Z,99.90
2022-08-11T04:22:07.613Z,99.90
2022-08-11T04:27:47.721Z,99.90
2022-08-11T04:32:59.910Z,99.90
2022-08-11T04:38:49.264Z,99.90
2022-08-11T04:44:18.474Z,99.90
2022-08-11T04:50:13.912Z,99.90
2022-08-11T04:55:59.774Z,99.90
2022-08-11T05:01:39.817Z,99.90
2022-08-11T05:07:06.582Z,99.90
2022-08-11T05:12:36.572Z,99.90
2022-08-11T05:18:06.931Z,99.90
2022-08-11T05:23:29.890Z,99.90
2022-08-11T05:28:59.147Z,99.90
2022-08-11T05:34:28.058Z,99.90
2022-08-11T05:39:52.985Z,99.90
2022-08-11T05:45:19.911Z,99.90
2022-08-11T05:50:42.909Z,99.90
2022-08-11T05:56:08.217Z,99.90
2022-08-11T06:01:26.519Z,99.90
2022-08-11T06:06:30.488Z,99.90
2022-08-11T06:11:44.404Z,99.90
2022-08-11T06:16:49.825Z,99.90
2022-08-11T06:21:53.309Z,99.90
2022-08-11T06:27:13.531Z,99.90
2022-08-11T06:32:17.624Z,99.90
2022-08-11T06:37:45.405Z,99.90
2022-08-11T06:42:56.778Z,99.90
2022-08-11T06:48:00.967Z,99.90
2022-08-11T06:53:06.019Z,99.90
2022-08-11T06:58:37.272Z,99.90
2022-08-11T07:03:46.332Z,99.90
2022-08-11T07:09:43.312Z,99.90
2022-08-11T07:15:12.700Z,99.90
2022-08-11T07:20:34.920Z,99.90
2022-08-11T07:25:59.956Z,99.90
2022-08-11T07:31:07.653Z,99.90
2022-08-11T07:36:12.796Z,99.90
2022-08-11T07:41:18.579Z,99.90
2022-08-11T07:46:41.524Z,99.90
2022-08-11T07:52:04.848Z,99.90
2022-08-11T07:57:58.485Z,99.90
2022-08-11T08:03:10.854Z,99.30
2022-08-11T08:08:34.150Z,98.90
2022-08-11T08:13:56.505Z,98.80
2022-08-11T08:18:59.128Z,96.50
2022-08-11T08:24:03.780Z,93.30
2022-08-11T08:29:37.482Z,92.20
2022-08-11T08:34:41.004Z,88.00
2022-08-11T08:39:46.591Z,89.40
2022-08-11T08:44:56.867Z,82.80
2022-08-11T08:50:04.344Z,83.50
2022-08-11T08:55:08.296Z,80.30
2022-08-11T09:00:17.917Z,75.40
2022-08-11T09:05:25.910Z,74.30
2022-08-11T09:10:30.999Z,78.20
2022-08-11T09:15:34.151Z,75.90
2022-08-11T09:20:38.832Z,74.20
2022-08-11T09:26:00.460Z,72.50
2022-08-11T09:31:03.584Z,70.20
2022-08-11T09:36:25.786Z,72.50
2022-08-11T09:41:28.359Z,67.40
2022-08-11T09:46:52.580Z,67.10
2022-08-11T09:52:05.098Z,66.90
2022-08-11T09:57:26.899Z,65.70
2022-08-11T10:02:30.953Z,62.90
2022-08-11T10:07:38.018Z,62.50
2022-08-11T10:12:48.342Z,64.40
2022-08-11T10:18:15.030Z,59.40
2022-08-11T10:24:01.096Z,58.90
2022-08-11T10:29:13.244Z,59.20
2022-08-11T10:34:16.405Z,58.50
2022-08-11T10:39:23.095Z,57.20
2022-08-11T10:44:25.775Z,55.90
2022-08-11T10:49:28.844Z,53.60
2022-08-11T10:54:52.204Z,55.00
2022-08-11T10:59:56.716Z,55.50
2022-08-11T11:05:27.994Z,52.90
2022-08-11T11:10:32.126Z,53.00
2022-08-11T11:15:54.798Z,52.20
2022-08-11T11:21:06.072Z,51.80
2022-08-11T11:26:27.182Z,54.40
2022-08-11T11:31:48.146Z,50.60
2022-08-11T11:36:54.561Z,51.30
2022-08-11T11:42:09.744Z,52.20
2022-08-11T11:47:13.980Z,49.40
2022-08-11T11:52:20.777Z,43.80
2022-08-11T11:57:58.588Z,47.30
2022-08-11T12:03:06.991Z,41.80
2022-08-11T12:08:16.399Z,42.70
2022-08-11T12:13:37.971Z,43.30
2022-08-11T12:18:45.284Z,41.90
2022-08-11T12:24:07.946Z,43.30
2022-08-11T12:29:12.403Z,43.70
2022-08-11T12:34:16.885Z,41.00
2022-08-11T12:40:16.170Z,40.80
2022-08-11T12:45:28.551Z,38.10
2022-08-11T12:50:50.314Z,40.50
2022-08-11T12:56:15.165Z,38.10
2022-08-11T13:01:36.633Z,40.00
2022-08-11T13:06:39.699Z,38.60
2022-08-11T13:12:01.425Z,34.60
2022-08-11T13:17:43.512Z,33.10
2022-08-11T13:22:47.247Z,31.60
2022-08-11T13:32:56.372Z,29.90
2022-08-11T13:38:27.022Z,30.10
2022-08-11T13:43:25.647Z,29.50
2022-08-11T13:48:28.342Z,29.20
2022-08-11T13:53:32.546Z,29.20
2022-08-11T13:58:40.210Z,27.60
2022-08-11T14:04:30.734Z,25.60
2022-08-11T14:09:11.335Z,25.00
2022-08-11T14:14:21.533Z,25.00
2022-08-11T14:19:26.058Z,26.00
2022-08-11T14:24:29.604Z,25.40
2022-08-11T14:29:34.357Z,25.00
2022-08-11T14:34:52.226Z,25.60
2022-08-11T14:40:03.781Z,26.30
2022-08-11T14:45:27.724Z,26.80
2022-08-11T14:50:50.555Z,25.80
2022-08-11T14:56:33.159Z,24.80
2022-08-11T15:01:54.282Z,24.30
2022-08-11T15:06:57.122Z,23.20
2022-08-11T15:12:32.687Z,25.50
2022-08-11T15:17:42.950Z,27.10
2022-08-11T15:23:05.281Z,29.10
2022-08-11T15:28:28.698Z,29.00
2022-08-11T15:33:52.050Z,26.30
2022-08-11T15:38:58.645Z,24.50
2022-08-11T15:44:26.843Z,24.70
2022-08-11T15:50:10.559Z,24.20
2022-08-11T15:55:09.154Z,23.60
2022-08-11T16:00:30.742Z,25.20
2022-08-11T16:05:46.268Z,26.20
2022-08-11T16:10:50.442Z,25.90
2022-08-11T16:16:16.087Z,25.40
2022-08-11T16:21:34.955Z,24.40
2022-08-11T16:27:10.078Z,23.90
2022-08-11T16:32:18.764Z,24.00
2022-08-11T16:37:44.885Z,24.40
2022-08-11T16:43:10.628Z,26.20
2022-08-11T16:48:36.060Z,26.00
2022-08-11T16:54:00.218Z,27.50
2022-08-11T16:59:14.803Z,29.50
2022-08-11T17:05:05.379Z,29.50
2022-08-11T17:10:51.868Z,28.60
2022-08-11T17:16:07.833Z,28.00
2022-08-11T17:21:15.731Z,29.40
2022-08-11T17:26:53.826Z,30.30
2022-08-11T17:32:16.075Z,30.00
2022-08-11T17:37:20.167Z,33.00
2022-08-11T17:42:42.754Z,33.70
2022-08-11T17:48:05.476Z,35.30
2022-08-11T17:53:27.335Z,36.80
2022-08-11T17:58:49.207Z,39.80
2022-08-11T18:03:56.381Z,41.20
2022-08-11T18:09:25.612Z,45.00
2022-08-11T18:14:47.855Z,46.90
2022-08-11T18:20:08.899Z,48.20
2022-08-11T18:25:33.883Z,48.80
2022-08-11T18:31:03.747Z,49.50
2022-08-11T18:36:28.712Z,52.60
2022-08-11T18:41:53.765Z,55.40
2022-08-11T18:47:16.448Z,55.00
2022-08-11T18:52:39.901Z,58.80
2022-08-11T18:58:04.261Z,60.30
2022-08-11T19:03:26.871Z,60.90
2022-08-11T19:08:51.233Z,62.80
2022-08-11T19:14:12.791Z,66.70
2022-08-11T19:19:35.046Z,66.50
2022-08-11T19:24:58.509Z,66.70
2022-08-11T19:30:20.714Z,69.80
2022-08-11T19:35:42.742Z,69.30
2022-08-11T19:41:04.717Z,68.00
2022-08-11T19:46:27.056Z,68.00
2022-08-11T19:51:53.458Z,70.40
2022-08-11T19:57:15.855Z,71.70
2022-08-11T20:02:37.613Z,70.00
2022-08-11T20:07:59.603Z,70.10
2022-08-11T20:13:21.278Z,72.80
2022-08-11T20:18:43.806Z,72.80
2022-08-11T20:24:07.514Z,74.90
2022-08-11T20:29:30.096Z,75.80
2022-08-11T20:34:53.581Z,76.30
2022-08-11T20:40:16.536Z,77.40
2022-08-11T20:45:55.217Z,78.80
2022-08-11T20:51:19.409Z,79.70
2022-08-11T20:56:41.559Z,80.70
2022-08-11T21:02:04.243Z,81.00
2022-08-11T21:07:28.129Z,81.30
2022-08-11T21:12:55.406Z,81.90
2022-08-11T21:18:28.217Z,83.20
2022-08-11T21:23:52.173Z,83.30
2022-08-11T21:29:16.971Z,83.00
2022-08-11T21:34:40.330Z,83.20
2022-08-11T21:40:03.448Z,83.00
2022-08-11T21:45:27.449Z,84.90
2022-08-11T21:50:48.965Z,84.60
2022-08-11T21:56:11.795Z,85.30
2022-08-11T22:01:34.661Z,87.10
2022-08-11T22:06:57.114Z,87.20
2022-08-11T22:12:29.590Z,87.60
2022-08-11T22:17:58.014Z,88.30
2022-08-11T22:23:20.857Z,87.70
2022-08-11T22:28:42.889Z,86.80
2022-08-11T22:34:03.949Z,85.90
2022-08-11T22:39:26.322Z,86.70
2022-08-11T22:44:47.814Z,89.20
2022-08-11T22:50:14.285Z,90.20
2022-08-11T22:55:36.176Z,90.50
2022-08-11T23:00:58.044Z,90.20
2022-08-11T23:06:20.890Z,90.50
2022-08-11T23:12:02.488Z,90.70
2022-08-11T23:17:24.364Z,91.30
2022-08-11T23:22:49.985Z,90.90
2022-08-11T23:28:12.648Z,91.30
2022-08-11T23:33:36.381Z,91.60
2022-08-11T23:38:57.497Z,91.60
2022-08-11T23:44:20.913Z,91.70
2022-08-11T23:49:41.954Z,92.70
2022-08-11T23:55:04.211Z,92.90
